Latest Weather Observations for Gold Coast Seaway

IDQ60901

Issued at 4:11 pm EST Wednesday 26 April 2017 (issued every 10 minutes, with the page automatically refreshed every 10 minutes)

About weather observations | Map of Brisbane area stations | Latest observations for Brisbane area | Other Formats
Station Details ID: 040764 Name: GOLD COAST SEAWAY Lat: -27.94 Lon: 153.43 Height: 2.98 m
Data from the previous 72 hours. | See also: Recent months at Gold Coast Seaway
Date/Time
EST
Temp
°C
App
Temp
°C
Dew
Point
°C
Rel
Hum
%
Delta-T
°C
Wind Press
QNH
hPa
Press
MSL
hPa
Rain since
9am
mm
Dir  Spd
km/h
Gust
km/h
Spd
kts
Gust
kts
26/04:00pm 21.5 22.8 20.1 92 0.9 NW 13 17 7 9 1008.4 1008.4 1.6
26/03:30pm 20.8 22.2 20.3 97 0.3 NNW 13 17 7 9 1008.5 1008.5 1.6
26/03:00pm 20.8 21.4 19.5 92 0.8 NNW 15 19 8 10 1008.7 1008.7 1.6
26/02:30pm 21.1 21.1 19.0 88 1.3 NW 17 20 9 11 1009.1 1009.1 1.4
26/02:00pm 20.9 21.8 19.2 90 1.1 NNW 13 19 7 10 1009.1 1009.1 1.4
26/01:30pm 21.0 21.8 19.8 93 0.8 NNW 15 20 8 11 1009.4 1009.4 1.4
26/01:00pm 20.5 20.6 19.2 92 0.8 NNW 17 22 9 12 1009.8 1009.8 1.4
26/12:30pm 20.7 20.9 18.6 88 1.3 NNW 15 20 8 11 1010.6 1010.6 0.8
26/12:00pm 21.0 20.2 18.0 83 1.9 NNW 19 26 10 14 1011.0 1011.0 0.6
26/11:30am 22.2 21.0 17.1 73 3.1 NW 19 26 10 14 1011.3 1011.3 0.0
26/11:00am 22.6 20.4 16.9 70 3.5 NW 24 32 13 17 1012.0 1012.0 0.0
26/10:30am 22.1 21.3 17.0 73 3.1 NW 17 24 9 13 1012.5 1012.5 0.0
26/10:00am 21.5 18.4 16.5 73 3.0 WNW 28 35 15 19 1013.5 1013.5 0.0
26/09:30am 21.6 18.8 16.3 72 3.2 NW 26 30 14 16 1013.3 1013.3 0.0
26/09:00am 21.4 20.7 17.4 78 2.5 NW 17 20 9 11 1013.1 1013.1 0.0
26/08:30am 21.2 21.5 17.8 81 2.1 NW 13 17 7 9 1013.4 1013.4 0.0
26/08:00am 20.5 21.0 17.5 83 1.8 NW 11 15 6 8 1013.5 1013.5 0.0
26/07:30am 19.7 20.0 16.9 84 1.7 NW 11 15 6 8 1013.4 1013.4 0.0
26/07:00am 19.2 18.4 17.2 88 1.2 NW 17 24 9 13 1013.1 1013.1 0.0
26/06:30am 18.9 18.7 17.6 92 0.8 NNW 15 17 8 9 1012.8 1012.8 0.0
26/06:00am 18.8 18.8 17.3 91 0.9 N 13 17 7 9 1013.0 1013.0 0.0
26/05:30am 19.0 19.0 17.3 90 1.0 NNW 13 15 7 8 1013.1 1013.1 0.0
26/05:00am 19.5 19.2 17.3 87 1.3 NNW 15 19 8 10 1012.9 1012.9 0.0
26/04:30am 19.3 18.7 17.6 90 1.0 NW 17 20 9 11 1012.9 1012.9 0.0
26/04:00am 18.8 19.4 17.8 94 0.6 NNW 11 17 6 9 1012.8 1012.8 0.0
26/03:30am 18.7 19.5 17.2 91 0.9 NNW 9 11 5 6 1012.9 1012.9 0.0
26/03:00am 19.0 19.3 17.0 88 1.2 NW 11 15 6 8 1013.0 1013.0 0.0
26/02:30am 19.3 19.1 17.6 90 1.0 NW 15 19 8 10 1012.8 1012.8 0.0
26/02:00am 19.4 19.5 17.4 88 1.2 NW 13 19 7 10 1013.0 1013.0 0.0
26/01:30am 19.7 19.5 18.5 93 0.7 NW 17 19 9 10 1013.3 1013.3 0.0
26/01:00am 19.1 19.4 17.9 93 0.7 NW 13 17 7 9 1013.7 1013.7 0.0
26/12:30am 19.6 19.7 18.3 92 0.8 NW 15 17 8 9 1013.9 1013.9 0.0
26/12:00am 18.7 19.1 17.2 91 0.9 NW 11 15 6 8 1014.1 1014.1 0.0
 
Date/Time
EST
Temp
°C
App
Temp
°C
Dew
Point
°C
Rel
Hum
%
Delta-T
°C
Wind Press
QNH
hPa
Press
MSL
hPa
Rain since
9am
mm
Dir  Spd
km/h
Gust
km/h
Spd
kts
Gust
kts
25/11:30pm 18.6 18.8 16.8 89 1.1 WNW 11 13 6 7 1014.5 1014.5 0.0
25/11:00pm 19.0 19.2 16.8 87 1.3 WNW 11 13 6 7 1014.6 1014.6 0.0
25/10:30pm 18.9 18.9 16.3 85 1.6 WNW 11 13 6 7 1014.8 1014.8 0.0
25/10:00pm 19.6 19.4 16.6 83 1.8 WNW 13 15 7 8 1015.2 1015.2 0.0
25/09:30pm 19.9 20.1 16.7 82 1.9 WNW 11 13 6 7 1015.4 1015.4 0.0
25/09:00pm 19.8 20.0 16.8 83 1.8 NW 11 13 6 7 1015.6 1015.6 0.0
25/08:30pm 20.3 20.5 16.7 80 2.2 NW 11 13 6 7 1015.7 1015.7 0.0
25/08:00pm 20.5 20.2 16.5 78 2.4 NW 13 17 7 9 1015.9 1015.9 0.0
25/07:30pm 20.6 20.9 17.0 80 2.2 NNW 11 15 6 8 1015.5 1015.5 0.0
25/07:00pm 20.5 20.1 16.1 76 2.6 NNW 13 17 7 9 1015.2 1015.2 0.0
25/06:30pm 21.1 20.8 16.5 75 2.8 NNW 13 17 7 9 1015.1 1015.1 0.0
25/06:00pm 21.3 20.9 16.3 73 3.0 N 13 20 7 11 1015.1 1015.1 0.0
25/05:30pm 21.7 19.7 16.4 72 3.2 N 22 26 12 14 1015.0 1015.0 0.0
25/05:00pm 22.2 20.3 16.7 71 3.4 NNE 22 26 12 14 1014.7 1014.7 0.0
25/04:30pm 23.2 21.3 16.7 67 4.0 NNE 22 26 12 14 1014.5 1014.5 0.0
25/04:00pm 23.7 22.1 16.5 64 4.4 NNE 20 24 11 13 1014.8 1014.8 0.0
25/03:30pm 24.4 23.2 17.1 63 4.5 NNE 19 24 10 13 1014.9 1014.9 0.0
25/03:00pm 24.2 23.5 17.4 65 4.2 NE 17 20 9 11 1015.0 1015.0 0.0
25/02:30pm 24.0 22.8 17.0 65 4.3 NE 19 20 10 11 1015.1 1015.1 0.0
25/02:00pm 24.1 23.2 16.9 64 4.4 NE 17 20 9 11 1015.4 1015.4 0.0
25/01:30pm 24.7 24.0 17.4 64 4.5 NE 17 19 9 10 1015.8 1015.8 0.0
25/01:00pm 24.6 24.6 17.1 63 4.6 NE 13 17 7 9 1016.4 1016.4 0.0
25/12:30pm 24.6 24.8 17.6 65 4.4 ENE 13 17 7 9 1016.8 1016.8 0.0
25/12:00pm 24.0 24.2 17.7 68 3.9 ENE 13 15 7 8 1017.3 1017.3 0.0
25/11:30am 24.0 25.0 16.8 64 4.4 NE 7 9 4 5 1018.0 1018.0 0.0
25/11:00am 23.4 25.3 16.7 66 4.1 ESE 2 7 1 4 1018.3 1018.3 0.0
25/10:30am 22.7 23.7 16.3 67 3.9 SE 6 7 3 4 1018.8 1018.8 0.0
25/10:00am 23.2 23.9 16.0 64 4.3 SSE 7 9 4 5 1019.1 1019.1 0.0
25/09:30am 23.4 24.1 16.2 64 4.4 SSE 7 9 4 5 1019.2 1019.2 0.0
25/09:00am 22.3 22.6 15.9 67 3.8 SW 9 13 5 7 1019.3 1019.3 0.0
25/08:30am 21.2 21.5 16.0 72 3.1 SW 9 13 5 7 1019.4 1019.4 0.0
25/08:00am 20.0 20.2 15.8 77 2.5 SW 9 13 5 7 1019.4 1019.4 0.0
25/07:30am 18.6 18.4 15.8 84 1.7 WSW 11 13 6 7 1019.3 1019.3 0.0
25/07:00am 17.2 17.4 15.7 91 0.9 WSW 9 11 5 6 1018.8 1018.8 0.0
25/06:30am 16.4 16.2 15.8 96 0.4 WSW 11 15 6 8 1018.8 1018.8 0.0
25/06:00am 16.2 15.6 15.6 96 0.3 SW 13 17 7 9 1018.3 1018.3 0.0
25/05:30am 16.4 16.2 15.6 95 0.5 SW 11 13 6 7 1018.1 1018.1 0.0
25/05:00am 16.5 15.8 15.5 94 0.6 SW 13 15 7 8 1018.0 1018.0 0.0
25/04:30am 16.5 16.3 15.7 95 0.5 SW 11 13 6 7 1018.2 1018.2 0.0
25/04:00am 16.6 16.4 15.6 94 0.6 WSW 11 13 6 7 1018.2 1018.2 0.0
25/03:30am 16.7 16.2 15.9 95 0.5 SW 13 15 7 8 1018.3 1018.3 0.0
25/03:00am 16.7 16.1 15.7 94 0.6 SW 13 17 7 9 1018.4 1018.4 0.0
25/02:30am 16.8 16.7 16.0 95 0.5 SW 11 15 6 8 1018.4 1018.4 0.0
25/02:00am 16.8 16.7 16.0 95 0.5 SW 11 15 6 8 1018.6 1018.6 0.0
25/01:30am 17.1 16.6 16.0 93 0.6 SW 13 15 7 8 1018.8 1018.8 0.0
25/01:00am 17.4 17.4 16.3 93 0.7 SW 11 13 6 7 1018.8 1018.8 0.0
25/12:30am 17.3 17.2 16.0 92 0.8 SW 11 15 6 8 1019.2 1019.2 0.0
25/12:00am 17.6 17.5 16.1 91 0.9 SW 11 15 6 8 1019.8 1019.8 0.0
 
Date/Time
EST
Temp
°C
App
Temp
°C
Dew
Point
°C
Rel
Hum
%
Delta-T
°C
Wind Press
QNH
hPa
Press
MSL
hPa
Rain since
9am
mm
Dir  Spd
km/h
Gust
km/h
Spd
kts
Gust
kts
24/11:30pm 17.8 17.8 16.3 91 0.9 SW 11 15 6 8 1020.0 1020.0 0.0
24/11:00pm 18.0 18.0 16.2 89 1.1 SW 11 13 6 7 1020.2 1020.2 0.0
24/10:30pm 18.2 18.1 16.0 87 1.3 SW 11 13 6 7 1020.4 1020.4 0.0
24/10:00pm 18.4 18.4 16.2 87 1.3 SW 11 13 6 7 1020.6 1020.6 0.0
24/09:30pm 18.5 18.8 15.9 85 1.5 SW 9 11 5 6 1020.6 1020.6 0.0
24/09:00pm 18.8 19.0 15.7 82 1.8 SSW 9 13 5 7 1020.6 1020.6 0.0
24/08:30pm 19.5 19.3 15.8 79 2.2 SW 11 13 6 7 1020.5 1020.5 0.0
24/08:00pm 20.8 19.4 15.6 72 3.1 SE 17 20 9 11 1020.4 1020.4 0.0
24/07:30pm 21.0 19.2 15.5 71 3.3 SE 19 26 10 14 1020.1 1020.1 0.0
24/07:00pm 21.1 19.5 16.5 75 2.8 SE 20 24 11 13 1019.8 1019.8 0.0
24/06:30pm 21.1 19.4 16.3 74 2.9 SE 20 24 11 13 1019.6 1019.6 0.0
24/06:00pm 21.0 19.5 16.8 77 2.5 SE 20 24 11 13 1019.4 1019.4 0.0
24/05:30pm 21.3 19.9 17.9 81 2.1 SE 22 28 12 15 1019.2 1019.2 0.0
24/05:00pm 21.3 19.6 17.3 78 2.4 SE 22 26 12 14 1019.1 1019.1 0.0
24/04:30pm 21.8 20.0 17.8 78 2.5 SE 24 28 13 15 1019.0 1019.0 0.0
24/04:00pm 22.4 20.7 17.3 73 3.1 SE 22 28 12 15 1018.9 1018.9 0.0
24/03:30pm 23.5 21.9 17.5 69 3.7 SE 22 28 12 15 1018.7 1018.7 0.0
24/03:00pm 23.2 20.9 17.7 71 3.4 SE 26 30 14 16 1018.7 1018.7 0.0
24/02:30pm 24.1 22.5 18.3 70 3.7 SE 24 30 13 16 1018.9 1018.9 0.0
24/02:00pm 24.4 22.9 18.6 70 3.7 SE 24 28 13 15 1019.1 1019.1 0.0
24/01:30pm 24.3 21.8 18.0 68 4.0 SE 28 32 15 17 1019.1 1019.1 0.0
24/01:00pm 24.5 22.2 18.4 69 3.8 SE 28 32 15 17 1019.5 1019.5 0.0
24/12:30pm 25.0 22.9 18.0 65 4.4 SE 26 30 14 16 1019.7 1019.7 0.0
24/12:00pm 25.5 25.1 18.9 67 4.2 SE 19 24 10 13 1020.1 1020.1 0.0
24/11:30am 25.0 23.8 17.5 63 4.7 SSE 20 28 11 15 1020.8 1020.8 0.0
24/11:00am 25.4 24.2 18.3 65 4.5 SSE 22 28 12 15 1021.2 1021.2 0.0
24/10:30am 24.6 23.4 18.5 69 3.9 SSE 22 28 12 15 1021.5 1021.5 0.0
24/10:00am 24.1 22.6 17.6 67 4.0 SSE 22 28 12 15 1021.7 1021.7 0.0
24/09:30am 24.0 22.7 18.2 70 3.6 SSE 22 28 12 15 1021.7 1021.7 0.0
24/09:00am 22.8 21.7 17.3 71 3.4 SSE 19 26 10 14 1021.6 1021.6 0.0
24/08:30am 21.8 21.3 17.0 74 2.9 S 15 26 8 14 1021.5 1021.5 0.0
24/08:00am 20.7 20.7 17.1 80 2.2 S 13 17 7 9 1021.3 1021.3 0.0
24/07:30am 19.1 19.3 16.7 86 1.4 SSW 11 15 6 8 1020.9 1020.9 0.0
24/07:00am 17.9 18.0 16.6 92 0.8 SSW 11 15 6 8 1020.8 1020.8 0.0
24/06:30am 16.9 17.3 16.3 96 0.4 SW 9 13 5 7 1020.5 1020.5 0.0
24/06:00am 16.8 16.9 16.5 98 0.2 SW 11 13 6 7 1020.3 1020.3 0.0
24/05:30am 16.8 16.9 16.5 98 0.2 SW 11 13 6 7 1020.1 1020.1 0.0
24/05:00am 17.0 17.2 16.7 98 0.2 SW 11 15 6 8 1020.0 1020.0 0.0
24/04:30am 16.8 16.9 16.5 98 0.2 SW 11 15 6 8 1020.1 1020.1 0.0
24/04:00am 17.1 17.7 16.9 99 0.1 SW 9 13 5 7 1019.9 1019.9 0.0
24/03:30am 17.0 17.2 16.8 99 0.1 SW 11 15 6 8 1019.9 1019.9 0.0
24/03:00am 17.2 17.5 17.0 99 0.1 SW 11 13 6 7 1020.2 1020.2 0.0
24/02:30am 17.2 17.5 16.9 98 0.2 SW 11 13 6 7 1020.4 1020.4 0.0
24/02:00am 17.4 17.3 16.9 97 0.3 SW 13 15 7 8 1020.6 1020.6 0.0
24/01:30am 17.4 17.1 16.4 94 0.6 SW 13 15 7 8 1020.9 1020.9 0.0
24/01:00am 17.7 17.8 16.4 92 0.8 SW 11 15 6 8 1021.1 1021.1 0.0
24/12:30am 18.0 18.5 16.5 91 0.9 SW 9 13 5 7 1021.3 1021.3 0.0
24/12:00am 18.0 18.0 16.3 90 1.0 SSW 11 15 6 8 1021.4 1021.4 0.0
 
Date/Time
EST
Temp
°C
App
Temp
°C
Dew
Point
°C
Rel
Hum
%
Delta-T
°C
Wind Press
QNH
hPa
Press
MSL
hPa
Rain since
9am
mm
Dir  Spd
km/h
Gust
km/h
Spd
kts
Gust
kts
23/11:30pm 18.4 18.9 16.6 89 1.1 SW 9 13 5 7 1021.7 1021.7 0.0
23/11:00pm 18.5 18.9 16.3 87 1.3 SSW 9 13 5 7 1021.8 1021.8 0.0
23/10:30pm 18.6 18.2 16.2 86 1.4 SSW 13 15 7 8 1022.0 1022.0 0.0
23/10:00pm 18.6 18.6 16.2 86 1.4 SSW 11 13 6 7 1022.2 1022.2 0.0
23/09:30pm 19.0 19.4 16.2 84 1.7 SSW 9 11 5 6 1022.2 1022.2 0.0
23/09:00pm 19.3 19.3 16.2 82 1.8 SSW 11 15 6 8 1022.2 1022.2 0.0
23/08:30pm 19.8 19.4 16.3 80 2.1 SSW 13 19 7 10 1022.1 1022.1 0.0
23/08:00pm 20.6 20.7 16.4 77 2.5 SSW 11 13 6 7 1021.9 1021.9 0.0
23/07:30pm 21.4 21.1 17.4 78 2.5 SE 15 19 8 10 1021.7 1021.7 0.0
23/07:00pm 21.3 20.1 17.1 77 2.6 SE 19 24 10 13 1021.5 1021.5 0.0
23/06:30pm 21.4 20.9 17.8 80 2.2 ESE 17 20 9 11 1021.3 1021.3 0.0
23/06:00pm 21.1 20.4 17.3 79 2.3 E 17 22 9 12 1021.1 1021.1 0.0
23/05:30pm 21.1 19.0 16.3 74 2.9 SE 22 26 12 14 1020.8 1020.8 0.0
23/05:00pm 21.1 19.1 15.6 71 3.3 SE 20 26 11 14 1020.8 1020.8 0.0
23/04:30pm 22.1 20.1 16.4 70 3.5 SE 22 30 12 16 1020.7 1020.7 0.0

Latest Capital City Observations: Canberra | Sydney | Melbourne | Brisbane | Adelaide | Perth | Hobart | Darwin

Other Formats:

Comma delimited format used in spreadsheet applications
http://www.bom.gov.au/fwo/IDQ60901/IDQ60901.94580.axf

JavaScript Object Notation format (JSON) in row-major order
http://www.bom.gov.au/fwo/IDQ60901/IDQ60901.94580.json